sensor_id;sensor_type;location;lat;lon;timestamp;temperature;humidity
13409;DHT22;6775;49.574;11.170;2023-07-20T00:02:49;17.70;99.90
13409;DHT22;6775;49.574;11.170;2023-07-20T00:05:18;17.60;99.90
13409;DHT22;6775;49.574;11.170;2023-07-20T00:07:48;17.60;99.90
13409;DHT22;6775;49.574;11.170;2023-07-20T00:10:18;17.60;99.90
13409;DHT22;6775;49.574;11.170;2023-07-20T00:12:46;17.60;99.90
13409;DHT22;6775;49.574;11.170;2023-07-20T00:15:15;17.60;99.90
13409;DHT22;6775;49.574;11.170;2023-07-20T00:17:44;17.50;99.90
13409;DHT22;6775;49.574;11.170;2023-07-20T00:20:13;17.40;99.90
13409;DHT22;6775;49.574;11.170;2023-07-20T00:22:41;17.50;99.90
13409;DHT22;6775;49.574;11.170;2023-07-20T00:25:10;17.50;99.90
13409;DHT22;6775;49.574;11.170;2023-07-20T00:27:38;17.50;99.90
13409;DHT22;6775;49.574;11.170;2023-07-20T00:30:07;17.50;99.90
13409;DHT22;6775;49.574;11.170;2023-07-20T00:32:36;17.50;99.90
13409;DHT22;6775;49.574;11.170;2023-07-20T00:35:06;17.50;99.90
13409;DHT22;6775;49.574;11.170;2023-07-20T00:37:34;17.50;99.90
13409;DHT22;6775;49.574;11.170;2023-07-20T00:40:03;17.60;99.90
13409;DHT22;6775;49.574;11.170;2023-07-20T00:42:34;17.60;99.90
13409;DHT22;6775;49.574;11.170;2023-07-20T00:45:02;17.60;99.90
13409;DHT22;6775;49.574;11.170;2023-07-20T00:47:31;17.70;99.90
13409;DHT22;6775;49.574;11.170;2023-07-20T00:50:00;17.60;99.90
13409;DHT22;6775;49.574;11.170;2023-07-20T00:52:30;17.60;99.90
13409;DHT22;6775;49.574;11.170;2023-07-20T00:54:58;17.50;99.90
13409;DHT22;6775;49.574;11.170;2023-07-20T00:57:27;17.50;99.90
13409;DHT22;6775;49.574;11.170;2023-07-20T00:59:55;17.40;99.90
13409;DHT22;6775;49.574;11.170;2023-07-20T01:02:23;17.40;99.90
13409;DHT22;6775;49.574;11.170;2023-07-20T01:04:51;17.30;99.90
13409;DHT22;6775;49.574;11.170;2023-07-20T01:07:25;17.30;99.90
13409;DHT22;6775;49.574;11.170;2023-07-20T01:10:03;17.20;99.90
13409;DHT22;6775;49.574;11.170;2023-07-20T01:12:42;17.20;99.90
13409;DHT22;6775;49.574;11.170;2023-07-20T01:15:10;17.20;99.90
13409;DHT22;6775;49.574;11.170;2023-07-20T01:17:39;17.20;99.90
13409;DHT22;6775;49.574;11.170;2023-07-20T01:20:10;17.20;99.90
13409;DHT22;6775;49.574;11.170;2023-07-20T01:23:17;17.20;99.90
13409;DHT22;6775;49.574;11.170;2023-07-20T01:26:07;17.20;99.90
13409;DHT22;6775;49.574;11.170;2023-07-20T01:29:17;17.20;99.90
13409;DHT22;6775;49.574;11.170;2023-07-20T01:31:52;17.20;99.90
13409;DHT22;6775;49.574;11.170;2023-07-20T01:34:22;17.20;99.90
13409;DHT22;6775;49.574;11.170;2023-07-20T01:36:53;17.20;99.90
13409;DHT22;6775;49.574;11.170;2023-07-20T01:39:23;17.20;99.90
13409;DHT22;6775;49.574;11.170;2023-07-20T01:41:52;17.20;99.90
13409;DHT22;6775;49.574;11.170;2023-07-20T01:44:20;17.10;99.90
13409;DHT22;6775;49.574;11.170;2023-07-20T01:46:48;17.10;99.90
13409;DHT22;6775;49.574;11.170;2023-07-20T01:49:18;17.10;99.90
13409;DHT22;6775;49.574;11.170;2023-07-20T01:51:46;17.20;99.90
13409;DHT22;6775;49.574;11.170;2023-07-20T01:54:14;17.20;99.90
13409;DHT22;6775;49.574;11.170;2023-07-20T01:56:42;17.20;99.90
13409;DHT22;6775;49.574;11.170;2023-07-20T01:59:10;17.20;99.90
13409;DHT22;6775;49.574;11.170;2023-07-20T02:01:38;17.20;99.90
13409;DHT22;6775;49.574;11.170;2023-07-20T02:04:06;17.30;99.90
13409;DHT22;6775;49.574;11.170;2023-07-20T02:06:35;17.20;99.90
13409;DHT22;6775;49.574;11.170;2023-07-20T02:09:04;17.20;99.90
13409;DHT22;6775;49.574;11.170;2023-07-20T02:11:32;17.30;99.90
13409;DHT22;6775;49.574;11.170;2023-07-20T02:14:00;17.30;99.90
13409;DHT22;6775;49.574;11.170;2023-07-20T02:16:28;17.30;99.90
13409;DHT22;6775;49.574;11.170;2023-07-20T02:18:56;17.30;99.90
13409;DHT22;6775;49.574;11.170;2023-07-20T02:21:24;17.30;99.90
13409;DHT22;6775;49.574;11.170;2023-07-20T02:23:54;17.30;99.90
13409;DHT22;6775;49.574;11.170;2023-07-20T02:26:22;17.40;99.90
13409;DHT22;6775;49.574;11.170;2023-07-20T02:28:50;17.40;99.90
13409;DHT22;6775;49.574;11.170;2023-07-20T02:31:18;17.40;99.90
13409;DHT22;6775;49.574;11.170;2023-07-20T02:33:46;17.50;99.90
13409;DHT22;6775;49.574;11.170;2023-07-20T02:36:14;17.50;99.90
13409;DHT22;6775;49.574;11.170;2023-07-20T02:38:43;17.50;99.90
13409;DHT22;6775;49.574;11.170;2023-07-20T02:41:13;17.50;99.90
13409;DHT22;6775;49.574;11.170;2023-07-20T02:43:41;17.60;99.90
13409;DHT22;6775;49.574;11.170;2023-07-20T02:46:09;17.50;99.90
13409;DHT22;6775;49.574;11.170;2023-07-20T02:48:37;17.50;99.90
13409;DHT22;6775;49.574;11.170;2023-07-20T02:51:05;17.50;99.90
13409;DHT22;6775;49.574;11.170;2023-07-20T02:53:34;17.50;99.90
13409;DHT22;6775;49.574;11.170;2023-07-20T02:56:03;17.40;99.90
13409;DHT22;6775;49.574;11.170;2023-07-20T02:58:34;17.30;99.90
13409;DHT22;6775;49.574;11.170;2023-07-20T03:01:03;17.40;99.90
13409;DHT22;6775;49.574;11.170;2023-07-20T03:03:32;17.40;99.90
13409;DHT22;6775;49.574;11.170;2023-07-20T03:06:05;17.40;99.90
13409;DHT22;6775;49.574;11.170;2023-07-20T03:08:35;17.40;99.90
13409;DHT22;6775;49.574;11.170;2023-07-20T03:11:03;17.30;99.90
13409;DHT22;6775;49.574;11.170;2023-07-20T03:13:33;17.30;99.90
13409;DHT22;6775;49.574;11.170;2023-07-20T03:16:01;17.20;99.90
13409;DHT22;6775;49.574;11.170;2023-07-20T03:18:29;17.20;99.90
13409;DHT22;6775;49.574;11.170;2023-07-20T03:20:57;17.10;99.90
13409;DHT22;6775;49.574;11.170;2023-07-20T03:23:25;17.00;99.90
13409;DHT22;6775;49.574;11.170;2023-07-20T03:25:55;17.00;99.90
13409;DHT22;6775;49.574;11.170;2023-07-20T03:28:24;17.00;99.90
13409;DHT22;6775;49.574;11.170;2023-07-20T03:30:56;17.00;99.90
13409;DHT22;6775;49.574;11.170;2023-07-20T03:33:26;17.00;99.90
13409;DHT22;6775;49.574;11.170;2023-07-20T03:35:55;16.90;99.90
13409;DHT22;6775;49.574;11.170;2023-07-20T03:38:24;16.90;99.90
13409;DHT22;6775;49.574;11.170;2023-07-20T03:40:54;17.00;99.90
13409;DHT22;6775;49.574;11.170;2023-07-20T03:43:24;17.00;99.90
13409;DHT22;6775;49.574;11.170;2023-07-20T03:45:55;17.00;99.90
13409;DHT22;6775;49.574;11.170;2023-07-20T03:48:24;17.00;99.90
13409;DHT22;6775;49.574;11.170;2023-07-20T03:50:53;17.00;99.90
13409;DHT22;6775;49.574;11.170;2023-07-20T03:53:22;17.10;99.90
13409;DHT22;6775;49.574;11.170;2023-07-20T03:55:51;17.20;99.90
13409;DHT22;6775;49.574;11.170;2023-07-20T03:58:20;17.20;99.90
13409;DHT22;6775;49.574;11.170;2023-07-20T04:00:49;17.20;99.90
13409;DHT22;6775;49.574;11.170;2023-07-20T04:03:19;17.20;99.90
13409;DHT22;6775;49.574;11.170;2023-07-20T04:05:49;17.30;99.90
13409;DHT22;6775;49.574;11.170;2023-07-20T04:08:17;17.30;99.90
13409;DHT22;6775;49.574;11.170;2023-07-20T04:10:45;17.30;99.90
13409;DHT22;6775;49.574;11.170;2023-07-20T04:13:13;17.30;99.90
13409;DHT22;6775;49.574;11.170;2023-07-20T04:15:42;17.40;99.90
13409;DHT22;6775;49.574;11.170;2023-07-20T04:18:10;17.40;99.90
13409;DHT22;6775;49.574;11.170;2023-07-20T04:20:39;17.40;99.90
13409;DHT22;6775;49.574;11.170;2023-07-20T04:23:08;17.50;99.90
13409;DHT22;6775;49.574;11.170;2023-07-20T04:25:39;17.50;99.90
13409;DHT22;6775;49.574;11.170;2023-07-20T04:28:07;17.60;99.90
13409;DHT22;6775;49.574;11.170;2023-07-20T04:30:37;17.60;99.90
13409;DHT22;6775;49.574;11.170;2023-07-20T04:33:06;17.60;99.90
13409;DHT22;6775;49.574;11.170;2023-07-20T04:35:48;17.70;99.90
13409;DHT22;6775;49.574;11.170;2023-07-20T04:38:18;17.70;99.90
13409;DHT22;6775;49.574;11.170;2023-07-20T04:40:47;17.80;99.90
13409;DHT22;6775;49.574;11.170;2023-07-20T04:43:17;17.80;99.90
13409;DHT22;6775;49.574;11.170;2023-07-20T04:45:45;17.90;99.90
13409;DHT22;6775;49.574;11.170;2023-07-20T04:48:14;18.00;99.90
13409;DHT22;6775;49.574;11.170;2023-07-20T04:50:46;18.00;99.90
13409;DHT22;6775;49.574;11.170;2023-07-20T04:53:14;18.10;99.90
13409;DHT22;6775;49.574;11.170;2023-07-20T04:55:47;18.00;99.90
13409;DHT22;6775;49.574;11.170;2023-07-20T04:58:19;18.00;99.90
13409;DHT22;6775;49.574;11.170;2023-07-20T05:00:48;18.00;99.90
13409;DHT22;6775;49.574;11.170;2023-07-20T05:03:16;18.00;99.90
13409;DHT22;6775;49.574;11.170;2023-07-20T05:05:46;18.00;99.90
13409;DHT22;6775;49.574;11.170;2023-07-20T05:08:16;18.00;99.90
13409;DHT22;6775;49.574;11.170;2023-07-20T05:10:44;18.00;99.90
13409;DHT22;6775;49.574;11.170;2023-07-20T05:13:12;18.00;99.90
13409;DHT22;6775;49.574;11.170;2023-07-20T05:15:40;18.10;99.90
13409;DHT22;6775;49.574;11.170;2023-07-20T05:18:08;18.10;99.90
13409;DHT22;6775;49.574;11.170;2023-07-20T05:20:36;18.20;99.90
13409;DHT22;6775;49.574;11.170;2023-07-20T05:23:06;18.20;99.90
13409;DHT22;6775;49.574;11.170;2023-07-20T05:25:34;18.20;99.90
13409;DHT22;6775;49.574;11.170;2023-07-20T05:28:02;18.20;99.90
13409;DHT22;6775;49.574;11.170;2023-07-20T05:30:30;18.30;99.90
13409;DHT22;6775;49.574;11.170;2023-07-20T05:32:58;18.30;99.90
13409;DHT22;6775;49.574;11.170;2023-07-20T05:35:27;18.30;99.90
13409;DHT22;6775;49.574;11.170;2023-07-20T05:37:55;18.40;99.90
13409;DHT22;6775;49.574;11.170;2023-07-20T05:40:24;18.40;99.90
13409;DHT22;6775;49.574;11.170;2023-07-20T05:42:52;18.40;99.90
13409;DHT22;6775;49.574;11.170;2023-07-20T05:45:23;18.40;99.90
13409;DHT22;6775;49.574;11.170;2023-07-20T05:47:51;18.40;99.90
13409;DHT22;6775;49.574;11.170;2023-07-20T05:50:19;18.40;99.90
13409;DHT22;6775;49.574;11.170;2023-07-20T05:52:47;18.40;99.90
13409;DHT22;6775;49.574;11.170;2023-07-20T05:55:15;18.40;99.90
13409;DHT22;6775;49.574;11.170;2023-07-20T05:57:45;18.50;99.90
13409;DHT22;6775;49.574;11.170;2023-07-20T06:00:15;18.70;99.90
13409;DHT22;6775;49.574;11.170;2023-07-20T06:02:45;18.70;99.90
13409;DHT22;6775;49.574;11.170;2023-07-20T06:05:14;18.80;99.90
13409;DHT22;6775;49.574;11.170;2023-07-20T06:07:42;19.00;99.90
13409;DHT22;6775;49.574;11.170;2023-07-20T06:10:11;19.00;99.90
13409;DHT22;6775;49.574;11.170;2023-07-20T06:12:38;19.00;99.90
13409;DHT22;6775;49.574;11.170;2023-07-20T06:15:25;18.90;99.90
13409;DHT22;6775;49.574;11.170;2023-07-20T06:17:54;19.00;99.90
13409;DHT22;6775;49.574;11.170;2023-07-20T06:20:25;19.00;99.90
13409;DHT22;6775;49.574;11.170;2023-07-20T06:22:53;19.00;99.90
13409;DHT22;6775;49.574;11.170;2023-07-20T06:25:21;19.00;99.90
13409;DHT22;6775;49.574;11.170;2023-07-20T06:27:50;19.00;99.90
13409;DHT22;6775;49.574;11.170;2023-07-20T06:30:20;19.10;99.90
13409;DHT22;6775;49.574;11.170;2023-07-20T06:32:48;19.20;99.90
13409;DHT22;6775;49.574;11.170;2023-07-20T06:35:17;19.30;99.90
13409;DHT22;6775;49.574;11.170;2023-07-20T06:37:46;19.30;99.90
13409;DHT22;6775;49.574;11.170;2023-07-20T06:40:14;19.40;99.90
13409;DHT22;6775;49.574;11.170;2023-07-20T06:42:45;19.40;99.90
13409;DHT22;6775;49.574;11.170;2023-07-20T06:45:16;19.50;99.90
13409;DHT22;6775;49.574;11.170;2023-07-20T06:47:45;19.50;99.90
13409;DHT22;6775;49.574;11.170;2023-07-20T06:50:13;19.60;99.90
13409;DHT22;6775;49.574;11.170;2023-07-20T06:52:44;19.80;99.90
13409;DHT22;6775;49.574;11.170;2023-07-20T06:55:14;19.90;99.90
13409;DHT22;6775;49.574;11.170;2023-07-20T06:57:49;19.90;99.90
13409;DHT22;6775;49.574;11.170;2023-07-20T07:00:19;19.80;99.90
13409;DHT22;6775;49.574;11.170;2023-07-20T07:02:48;19.70;99.90
13409;DHT22;6775;49.574;11.170;2023-07-20T07:05:17;19.80;99.90
13409;DHT22;6775;49.574;11.170;2023-07-20T07:07:47;19.80;99.90
13409;DHT22;6775;49.574;11.170;2023-07-20T07:10:15;20.00;99.90
13409;DHT22;6775;49.574;11.170;2023-07-20T07:12:43;20.10;99.90
13409;DHT22;6775;49.574;11.170;2023-07-20T07:15:11;20.20;99.90
13409;DHT22;6775;49.574;11.170;2023-07-20T07:17:39;20.40;99.90
13409;DHT22;6775;49.574;11.170;2023-07-20T07:20:10;20.60;99.90
13409;DHT22;6775;49.574;11.170;2023-07-20T07:22:47;20.70;99.90
13409;DHT22;6775;49.574;11.170;2023-07-20T07:25:16;20.80;99.90
13409;DHT22;6775;49.574;11.170;2023-07-20T07:27:49;20.80;99.90
13409;DHT22;6775;49.574;11.170;2023-07-20T07:30:18;20.90;99.90
13409;DHT22;6775;49.574;11.170;2023-07-20T07:32:46;21.00;99.90
13409;DHT22;6775;49.574;11.170;2023-07-20T07:35:16;21.10;99.90
13409;DHT22;6775;49.574;11.170;2023-07-20T07:37:44;21.20;99.90
13409;DHT22;6775;49.574;11.170;2023-07-20T07:40:33;21.40;99.90
13409;DHT22;6775;49.574;11.170;2023-07-20T07:43:01;21.40;99.90
13409;DHT22;6775;49.574;11.170;2023-07-20T07:45:31;21.40;99.90
13409;DHT22;6775;49.574;11.170;2023-07-20T07:48:02;21.30;99.90
13409;DHT22;6775;49.574;11.170;2023-07-20T07:50:32;21.10;99.90
13409;DHT22;6775;49.574;11.170;2023-07-20T07:53:00;21.10;99.90
13409;DHT22;6775;49.574;11.170;2023-07-20T07:55:29;21.20;99.90
13409;DHT22;6775;49.574;11.170;2023-07-20T07:57:57;21.30;99.90
13409;DHT22;6775;49.574;11.170;2023-07-20T08:00:25;21.40;99.90
13409;DHT22;6775;49.574;11.170;2023-07-20T08:02:53;21.60;99.90
13409;DHT22;6775;49.574;11.170;2023-07-20T08:05:22;21.80;99.90
13409;DHT22;6775;49.574;11.170;2023-07-20T08:07:51;21.90;99.90
13409;DHT22;6775;49.574;11.170;2023-07-20T08:10:20;22.20;99.90
13409;DHT22;6775;49.574;11.170;2023-07-20T08:12:48;22.40;99.90
13409;DHT22;6775;49.574;11.170;2023-07-20T08:15:16;22.60;99.90
13409;DHT22;6775;49.574;11.170;2023-07-20T08:17:44;22.50;99.90
13409;DHT22;6775;49.574;11.170;2023-07-20T08:20:13;22.30;99.90
13409;DHT22;6775;49.574;11.170;2023-07-20T08:22:44;22.10;99.90
13409;DHT22;6775;49.574;11.170;2023-07-20T08:25:15;22.10;99.90
13409;DHT22;6775;49.574;11.170;2023-07-20T08:27:44;22.10;99.90
13409;DHT22;6775;49.574;11.170;2023-07-20T08:30:13;22.20;99.90
13409;DHT22;6775;49.574;11.170;2023-07-20T08:32:41;22.30;99.90
13409;DHT22;6775;49.574;11.170;2023-07-20T08:35:09;22.20;99.90
13409;DHT22;6775;49.574;11.170;2023-07-20T08:37:37;22.00;99.90
13409;DHT22;6775;49.574;11.170;2023-07-20T08:40:07;21.90;99.90
13409;DHT22;6775;49.574;11.170;2023-07-20T08:42:38;21.90;99.90
13409;DHT22;6775;49.574;11.170;2023-07-20T08:45:08;22.00;99.90
13409;DHT22;6775;49.574;11.170;2023-07-20T08:47:37;22.00;99.90
13409;DHT22;6775;49.574;11.170;2023-07-20T08:50:08;21.90;99.90
13409;DHT22;6775;49.574;11.170;2023-07-20T08:52:38;21.80;99.90
13409;DHT22;6775;49.574;11.170;2023-07-20T08:55:06;21.70;99.90
13409;DHT22;6775;49.574;11.170;2023-07-20T08:57:37;21.60;99.90
13409;DHT22;6775;49.574;11.170;2023-07-20T09:00:09;21.50;99.90
13409;DHT22;6775;49.574;11.170;2023-07-20T09:02:40;21.50;99.90
13409;DHT22;6775;49.574;11.170;2023-07-20T09:05:10;21.50;99.90
13409;DHT22;6775;49.574;11.170;2023-07-20T09:07:41;21.70;99.90
13409;DHT22;6775;49.574;11.170;2023-07-20T09:10:09;21.70;99.90
13409;DHT22;6775;49.574;11.170;2023-07-20T09:12:40;21.80;99.90
13409;DHT22;6775;49.574;11.170;2023-07-20T09:15:10;22.10;99.90
13409;DHT22;6775;49.574;11.170;2023-07-20T09:17:39;22.20;99.90
13409;DHT22;6775;49.574;11.170;2023-07-20T09:20:08;22.20;99.90
13409;DHT22;6775;49.574;11.170;2023-07-20T09:22:38;22.10;99.90
13409;DHT22;6775;49.574;11.170;2023-07-20T09:25:08;22.00;99.90
13409;DHT22;6775;49.574;11.170;2023-07-20T09:27:42;22.10;99.90
13409;DHT22;6775;49.574;11.170;2023-07-20T09:30:11;22.30;99.90
13409;DHT22;6775;49.574;11.170;2023-07-20T09:32:47;22.50;99.90
13409;DHT22;6775;49.574;11.170;2023-07-20T09:35:21;22.80;99.70
13409;DHT22;6775;49.574;11.170;2023-07-20T09:37:55;23.00;97.50
13409;DHT22;6775;49.574;11.170;2023-07-20T09:40:29;23.10;96.70
13409;DHT22;6775;49.574;11.170;2023-07-20T09:43:02;23.10;96.70
13409;DHT22;6775;49.574;11.170;2023-07-20T09:45:35;22.90;96.90
13409;DHT22;6775;49.574;11.170;2023-07-20T09:48:24;22.90;97.30
13409;DHT22;6775;49.574;11.170;2023-07-20T09:50:57;22.90;97.70
13409;DHT22;6775;49.574;11.170;2023-07-20T09:53:25;23.10;96.90
13409;DHT22;6775;49.574;11.170;2023-07-20T09:55:54;23.40;96.60
13409;DHT22;6775;49.574;11.170;2023-07-20T09:58:26;23.50;96.10
13409;DHT22;6775;49.574;11.170;2023-07-20T10:00:56;23.30;95.10
13409;DHT22;6775;49.574;11.170;2023-07-20T10:03:29;23.10;94.60
13409;DHT22;6775;49.574;11.170;2023-07-20T10:06:06;23.00;94.80
13409;DHT22;6775;49.574;11.170;2023-07-20T10:08:38;22.90;95.10
13409;DHT22;6775;49.574;11.170;2023-07-20T10:11:12;23.00;95.20
13409;DHT22;6775;49.574;11.170;2023-07-20T10:13:45;23.10;94.80
13409;DHT22;6775;49.574;11.170;2023-07-20T10:16:22;23.40;95.10
13409;DHT22;6775;49.574;11.170;2023-07-20T10:19:02;23.70;94.30
13409;DHT22;6775;49.574;11.170;2023-07-20T10:21:47;23.90;93.70
13409;DHT22;6775;49.574;11.170;2023-07-20T10:24:25;23.90;93.50
13409;DHT22;6775;49.574;11.170;2023-07-20T10:26:55;24.10;93.10
13409;DHT22;6775;49.574;11.170;2023-07-20T10:29:25;24.00;90.70
13409;DHT22;6775;49.574;11.170;2023-07-20T10:31:56;23.60;90.90
13409;DHT22;6775;49.574;11.170;2023-07-20T10:34:25;23.20;91.20
13409;DHT22;6775;49.574;11.170;2023-07-20T10:36:53;23.10;91.40
13409;DHT22;6775;49.574;11.170;2023-07-20T10:39:25;23.10;91.80
13409;DHT22;6775;49.574;11.170;2023-07-20T10:42:01;23.40;90.80
13409;DHT22;6775;49.574;11.170;2023-07-20T10:44:31;23.70;90.20
13409;DHT22;6775;49.574;11.170;2023-07-20T10:47:00;23.90;88.60
13409;DHT22;6775;49.574;11.170;2023-07-20T10:49:32;24.10;87.10
13409;DHT22;6775;49.574;11.170;2023-07-20T10:52:04;24.10;86.50
13409;DHT22;6775;49.574;11.170;2023-07-20T10:54:46;24.10;86.70
13409;DHT22;6775;49.574;11.170;2023-07-20T10:57:29;24.30;86.00
13409;DHT22;6775;49.574;11.170;2023-07-20T11:00:13;24.30;83.20
13409;DHT22;6775;49.574;11.170;2023-07-20T11:02:43;24.20;83.90
13409;DHT22;6775;49.574;11.170;2023-07-20T11:05:34;24.20;82.90
13409;DHT22;6775;49.574;11.170;2023-07-20T11:08:05;24.40;84.30
13409;DHT22;6775;49.574;11.170;2023-07-20T11:10:37;24.60;79.70
13409;DHT22;6775;49.574;11.170;2023-07-20T11:13:16;24.70;77.80
13409;DHT22;6775;49.574;11.170;2023-07-20T11:16:03;24.40;80.00
13409;DHT22;6775;49.574;11.170;2023-07-20T11:18:35;24.30;80.70
13409;DHT22;6775;49.574;11.170;2023-07-20T11:21:08;24.20;80.90
13409;DHT22;6775;49.574;11.170;2023-07-20T11:23:38;24.10;79.20
13409;DHT22;6775;49.574;11.170;2023-07-20T11:26:07;24.20;80.50
13409;DHT22;6775;49.574;11.170;2023-07-20T11:28:36;24.30;79.60
13409;DHT22;6775;49.574;11.170;2023-07-20T11:31:05;24.30;79.20
13409;DHT22;6775;49.574;11.170;2023-07-20T11:33:34;24.30;79.20
13409;DHT22;6775;49.574;11.170;2023-07-20T11:36:02;24.30;80.90
13409;DHT22;6775;49.574;11.170;2023-07-20T11:38:52;24.30;81.00
13409;DHT22;6775;49.574;11.170;2023-07-20T11:41:21;24.30;80.80
13409;DHT22;6775;49.574;11.170;2023-07-20T11:43:49;24.20;80.00
13409;DHT22;6775;49.574;11.170;2023-07-20T11:46:18;24.20;81.10
13409;DHT22;6775;49.574;11.170;2023-07-20T11:48:47;24.00;82.20
13409;DHT22;6775;49.574;11.170;2023-07-20T11:51:15;24.00;83.90
13409;DHT22;6775;49.574;11.170;2023-07-20T11:53:44;23.90;83.00
13409;DHT22;6775;49.574;11.170;2023-07-20T11:56:13;24.00;83.60
13409;DHT22;6775;49.574;11.170;2023-07-20T11:58:43;24.20;83.80
13409;DHT22;6775;49.574;11.170;2023-07-20T12:01:12;24.40;83.10
13409;DHT22;6775;49.574;11.170;2023-07-20T12:03:43;24.50;82.50
13409;DHT22;6775;49.574;11.170;2023-07-20T12:06:12;24.50;82.80
13409;DHT22;6775;49.574;11.170;2023-07-20T12:08:42;24.40;82.30
13409;DHT22;6775;49.574;11.170;2023-07-20T12:11:11;24.30;82.60
13409;DHT22;6775;49.574;11.170;2023-07-20T12:13:42;24.40;80.70
13409;DHT22;6775;49.574;11.170;2023-07-20T12:16:11;24.50;81.40
13409;DHT22;6775;49.574;11.170;2023-07-20T12:18:42;24.80;81.40
13409;DHT22;6775;49.574;11.170;2023-07-20T12:21:11;25.00;79.70
13409;DHT22;6775;49.574;11.170;2023-07-20T12:23:40;25.20;78.30
13409;DHT22;6775;49.574;11.170;2023-07-20T12:26:10;25.20;73.00
13409;DHT22;6775;49.574;11.170;2023-07-20T12:28:41;25.30;74.20
13409;DHT22;6775;49.574;11.170;2023-07-20T12:31:10;25.40;75.50
13409;DHT22;6775;49.574;11.170;2023-07-20T12:33:39;25.30;76.20
13409;DHT22;6775;49.574;11.170;2023-07-20T12:36:09;25.10;74.70
13409;DHT22;6775;49.574;11.170;2023-07-20T12:38:38;25.00;74.10
13409;DHT22;6775;49.574;11.170;2023-07-20T12:41:06;25.00;73.80
13409;DHT22;6775;49.574;11.170;2023-07-20T12:43:34;25.00;73.70
13409;DHT22;6775;49.574;11.170;2023-07-20T12:46:02;25.30;72.80
13409;DHT22;6775;49.574;11.170;2023-07-20T12:48:30;25.60;71.60
13409;DHT22;6775;49.574;11.170;2023-07-20T12:50:58;25.80;70.90
13409;DHT22;6775;49.574;11.170;2023-07-20T12:53:27;25.80;69.80
13409;DHT22;6775;49.574;11.170;2023-07-20T12:55:55;25.80;71.70
13409;DHT22;6775;49.574;11.170;2023-07-20T12:58:23;25.80;72.90
13409;DHT22;6775;49.574;11.170;2023-07-20T13:00:52;25.90;74.20
13409;DHT22;6775;49.574;11.170;2023-07-20T13:03:20;26.10;70.30
13409;DHT22;6775;49.574;11.170;2023-07-20T13:05:51;25.90;68.80
13409;DHT22;6775;49.574;11.170;2023-07-20T13:08:22;25.90;68.10
13409;DHT22;6775;49.574;11.170;2023-07-20T13:10:53;25.90;69.00
13409;DHT22;6775;49.574;11.170;2023-07-20T13:13:21;25.90;66.10
13409;DHT22;6775;49.574;11.170;2023-07-20T13:15:49;26.00;66.40
13409;DHT22;6775;49.574;11.170;2023-07-20T13:18:17;26.10;66.60
13409;DHT22;6775;49.574;11.170;2023-07-20T13:20:46;26.10;66.80
13409;DHT22;6775;49.574;11.170;2023-07-20T13:23:14;26.00;65.20
13409;DHT22;6775;49.574;11.170;2023-07-20T13:25:42;25.80;65.10
13409;DHT22;6775;49.574;11.170;2023-07-20T13:28:11;25.60;67.00
13409;DHT22;6775;49.574;11.170;2023-07-20T13:30:39;25.50;67.00
13409;DHT22;6775;49.574;11.170;2023-07-20T13:33:07;25.60;68.20
13409;DHT22;6775;49.574;11.170;2023-07-20T13:35:39;25.80;68.20
13409;DHT22;6775;49.574;11.170;2023-07-20T13:38:11;25.90;67.80
13409;DHT22;6775;49.574;11.170;2023-07-20T13:40:39;26.00;68.00
13409;DHT22;6775;49.574;11.170;2023-07-20T13:43:07;26.00;67.20
13409;DHT22;6775;49.574;11.170;2023-07-20T13:45:36;26.00;66.60
13409;DHT22;6775;49.574;11.170;2023-07-20T13:48:06;26.20;66.10
13409;DHT22;6775;49.574;11.170;2023-07-20T13:50:34;26.20;63.80
13409;DHT22;6775;49.574;11.170;2023-07-20T13:53:05;26.10;63.50
13409;DHT22;6775;49.574;11.170;2023-07-20T13:55:36;25.90;64.70
13409;DHT22;6775;49.574;11.170;2023-07-20T13:58:07;25.90;64.90
13409;DHT22;6775;49.574;11.170;2023-07-20T14:00:40;25.90;65.70
13409;DHT22;6775;49.574;11.170;2023-07-20T14:03:08;25.90;65.30
13409;DHT22;6775;49.574;11.170;2023-07-20T14:05:39;26.10;66.10
13409;DHT22;6775;49.574;11.170;2023-07-20T14:08:10;26.10;66.20
13409;DHT22;6775;49.574;11.170;2023-07-20T14:10:38;26.30;65.10
13409;DHT22;6775;49.574;11.170;2023-07-20T14:13:09;26.40;64.40
13409;DHT22;6775;49.574;11.170;2023-07-20T14:15:38;26.40;63.90
13409;DHT22;6775;49.574;11.170;2023-07-20T14:18:07;26.40;64.50
13409;DHT22;6775;49.574;11.170;2023-07-20T14:20:35;26.40;63.80
13409;DHT22;6775;49.574;11.170;2023-07-20T14:23:05;26.40;63.20
13409;DHT22;6775;49.574;11.170;2023-07-20T14:25:33;26.40;63.30
13409;DHT22;6775;49.574;11.170;2023-07-20T14:28:04;26.50;64.30
13409;DHT22;6775;49.574;11.170;2023-07-20T14:30:32;26.60;64.20
13409;DHT22;6775;49.574;11.170;2023-07-20T14:33:01;26.80;63.50
13409;DHT22;6775;49.574;11.170;2023-07-20T14:35:29;26.80;63.40
13409;DHT22;6775;49.574;11.170;2023-07-20T14:37:58;26.80;63.40
13409;DHT22;6775;49.574;11.170;2023-07-20T14:40:26;26.80;63.80
13409;DHT22;6775;49.574;11.170;2023-07-20T14:42:55;26.90;60.90
13409;DHT22;6775;49.574;11.170;2023-07-20T14:45:23;26.70;60.10
13409;DHT22;6775;49.574;11.170;2023-07-20T14:47:51;26.70;61.60
13409;DHT22;6775;49.574;11.170;2023-07-20T14:50:22;26.50;61.10
13409;DHT22;6775;49.574;11.170;2023-07-20T14:52:50;26.50;62.20
13409;DHT22;6775;49.574;11.170;2023-07-20T14:55:18;26.40;62.70
13409;DHT22;6775;49.574;11.170;2023-07-20T14:57:48;26.40;63.40
13409;DHT22;6775;49.574;11.170;2023-07-20T15:00:16;26.40;64.00
13409;DHT22;6775;49.574;11.170;2023-07-20T15:02:45;26.50;64.00
13409;DHT22;6775;49.574;11.170;2023-07-20T15:05:22;26.50;62.80
13409;DHT22;6775;49.574;11.170;2023-07-20T15:07:50;26.30;62.20
13409;DHT22;6775;49.574;11.170;2023-07-20T15:10:18;25.90;61.80
13409;DHT22;6775;49.574;11.170;2023-07-20T15:12:47;25.70;62.50
13409;DHT22;6775;49.574;11.170;2023-07-20T15:15:15;25.70;63.20
13409;DHT22;6775;49.574;11.170;2023-07-20T15:17:44;25.80;63.10
13409;DHT22;6775;49.574;11.170;2023-07-20T15:20:13;25.80;63.10
13409;DHT22;6775;49.574;11.170;2023-07-20T15:22:43;25.80;62.90
13409;DHT22;6775;49.574;11.170;2023-07-20T15:25:15;25.60;61.80
13409;DHT22;6775;49.574;11.170;2023-07-20T15:27:43;25.40;61.90
13409;DHT22;6775;49.574;11.170;2023-07-20T15:30:16;25.40;61.90
13409;DHT22;6775;49.574;11.170;2023-07-20T15:32:48;25.40;62.80
13409;DHT22;6775;49.574;11.170;2023-07-20T15:35:18;25.20;62.60
13409;DHT22;6775;49.574;11.170;2023-07-20T15:37:48;25.00;63.60
13409;DHT22;6775;49.574;11.170;2023-07-20T15:40:16;24.80;63.80
13409;DHT22;6775;49.574;11.170;2023-07-20T15:42:44;24.70;63.90
13409;DHT22;6775;49.574;11.170;2023-07-20T15:45:19;24.60;64.40
13409;DHT22;6775;49.574;11.170;2023-07-20T15:47:47;24.70;65.10
13409;DHT22;6775;49.574;11.170;2023-07-20T15:50:16;24.70;65.20